Time;durP1;ratioP1;P1;durP2;ratioP2;P2;SDS_P1;SDS_P2;PMS_P1;PMS_P2;Temp;Humidity;BMP_temperature;BMP_pressure;BME280_temperature;BME280_humidity;BME280_pressure;Samples;Min_cycle;Max_cycle;Signal;HPM_P1;HPM_P2
2022/07/09 00:01:13;;;;;;;4.20;3.45;;;;;;;;;;10443389;28;20219;-79
2022/07/09 00:06:14;;;;;;;4.03;3.72;;;;;;;;;;10447765;28;20210;-80
2022/07/09 00:11:15;;;;;;;3.13;2.97;;;;;;;;;;10448097;28;20222;-80
2022/07/09 00:16:16;;;;;;;3.58;3.33;;;;;;;;;;10434628;28;20175;-79
2022/07/09 00:21:17;;;;;;;3.30;3.15;;;;;;;;;;10444078;28;20203;-80
2022/07/09 00:26:18;;;;;;;5.38;3.45;;;;;;;;;;10445053;28;20217;-80
2022/07/09 00:31:19;;;;;;;3.13;2.92;;;;;;;;;;10437520;28;20271;-80
2022/07/09 00:36:20;;;;;;;3.58;3.28;;;;;;;;;;10424298;28;21094;-79
2022/07/09 00:41:21;;;;;;;3.45;3.05;;;;;;;;;;10449065;28;20186;-80
2022/07/09 00:46:22;;;;;;;3.60;3.30;;;;;;;;;;10443856;28;20273;-79
2022/07/09 00:51:23;;;;;;;4.65;3.25;;;;;;;;;;10441428;28;20252;-79
2022/07/09 00:56:24;;;;;;;7.07;3.55;;;;;;;;;;10431065;28;20182;-79
2022/07/09 01:01:25;;;;;;;3.10;2.90;;;;;;;;;;10439662;28;20218;-79
2022/07/09 01:06:26;;;;;;;6.10;3.38;;;;;;;;;;10439697;28;20227;-78
2022/07/09 01:11:28;;;;;;;6.32;4.00;;;;;;;;;;10437072;28;20183;-79
2022/07/09 01:16:32;;;;;;;6.50;4.00;;;;;;;;;;10435215;28;20192;-79
2022/07/09 01:21:33;;;;;;;6.78;4.30;;;;;;;;;;10439850;28;20965;-79
2022/07/09 01:26:35;;;;;;;5.22;4.25;;;;;;;;;;10421362;28;21155;-79
2022/07/09 01:31:37;;;;;;;12.35;4.30;;;;;;;;;;10435819;28;20219;-79
2022/07/09 01:36:38;;;;;;;6.78;3.95;;;;;;;;;;10446842;28;20210;-79
2022/07/09 01:41:39;;;;;;;9.27;3.50;;;;;;;;;;10435565;28;20183;-78
2022/07/09 01:46:40;;;;;;;6.38;3.10;;;;;;;;;;10434955;28;20210;-79
2022/07/09 01:51:41;;;;;;;3.70;3.20;;;;;;;;;;10436505;28;20203;-80
2022/07/09 01:56:42;;;;;;;5.93;4.13;;;;;;;;;;10440211;28;20191;-79
2022/07/09 02:01:43;;;;;;;5.22;3.00;;;;;;;;;;10430525;28;20582;-78
2022/07/09 02:06:44;;;;;;;5.90;3.58;;;;;;;;;;10429691;28;20233;-78
2022/07/09 02:11:47;;;;;;;5.88;3.28;;;;;;;;;;10432640;28;20193;-78
2022/07/09 02:16:48;;;;;;;9.60;3.88;;;;;;;;;;10432273;28;20201;-78
2022/07/09 02:21:49;;;;;;;7.47;3.20;;;;;;;;;;10429791;28;20198;-77
2022/07/09 02:26:50;;;;;;;5.15;2.95;;;;;;;;;;10430088;28;20210;-79
2022/07/09 02:31:51;;;;;;;15.60;4.05;;;;;;;;;;10426551;28;20238;-77
2022/07/09 02:36:52;;;;;;;9.68;3.72;;;;;;;;;;10427037;28;20200;-77
2022/07/09 02:41:53;;;;;;;11.20;4.10;;;;;;;;;;10429111;28;20305;-75
2022/07/09 02:46:54;;;;;;;7.93;4.13;;;;;;;;;;10417388;28;20264;-76
2022/07/09 02:51:57;;;;;;;8.50;3.95;;;;;;;;;;10429896;28;20670;-76
2022/07/09 02:56:58;;;;;;;6.00;3.65;;;;;;;;;;10430400;28;20737;-77
2022/07/09 03:01:59;;;;;;;11.18;3.67;;;;;;;;;;10430328;28;20218;-77
2022/07/09 03:07:00;;;;;;;6.10;3.80;;;;;;;;;;10429928;28;20234;-76
2022/07/09 03:12:01;;;;;;;12.45;3.55;;;;;;;;;;10430399;28;20219;-77
2022/07/09 03:17:02;;;;;;;11.07;3.90;;;;;;;;;;10429488;28;20199;-77
2022/07/09 03:22:04;;;;;;;9.90;3.45;;;;;;;;;;10431298;28;20187;-77
2022/07/09 03:27:05;;;;;;;10.15;4.25;;;;;;;;;;10428637;28;20325;-76
2022/07/09 03:32:06;;;;;;;9.50;4.43;;;;;;;;;;10434476;28;20214;-76
2022/07/09 03:37:08;;;;;;;10.73;4.10;;;;;;;;;;10444386;28;20626;-75
2022/07/09 03:42:09;;;;;;;11.82;4.38;;;;;;;;;;10441693;28;20221;-76
2022/07/09 03:47:10;;;;;;;10.95;4.18;;;;;;;;;;10438754;28;20227;-76
2022/07/09 03:52:11;;;;;;;12.40;3.85;;;;;;;;;;10423055;28;20212;-74
2022/07/09 03:57:12;;;;;;;17.48;4.78;;;;;;;;;;10434081;28;20202;-77
2022/07/09 04:02:13;;;;;;;10.10;3.85;;;;;;;;;;10436147;28;20593;-73
2022/07/09 04:07:15;;;;;;;15.20;4.38;;;;;;;;;;10419903;28;20318;-77
2022/07/09 04:12:16;;;;;;;17.58;4.35;;;;;;;;;;10417654;28;20215;-77
2022/07/09 04:17:17;;;;;;;7.65;3.30;;;;;;;;;;10427711;28;20297;-77
2022/07/09 04:22:18;;;;;;;10.65;3.90;;;;;;;;;;10430903;28;20187;-77
2022/07/09 04:27:19;;;;;;;7.88;3.67;;;;;;;;;;10437928;28;20203;-76
2022/07/09 04:32:20;;;;;;;13.02;3.72;;;;;;;;;;10404596;28;20211;-77
2022/07/09 04:37:21;;;;;;;11.40;3.83;;;;;;;;;;10439568;28;20186;-77
2022/07/09 04:42:22;;;;;;;6.72;3.10;;;;;;;;;;10434391;28;20286;-77
2022/07/09 04:47:23;;;;;;;10.32;3.30;;;;;;;;;;10436159;28;20211;-77
2022/07/09 04:52:26;;;;;;;13.07;3.33;;;;;;;;;;10438511;28;20214;-77
2022/07/09 04:57:27;;;;;;;12.18;3.92;;;;;;;;;;10431047;28;20226;-78
2022/07/09 05:02:28;;;;;;;8.80;3.67;;;;;;;;;;10433394;28;20594;-80
2022/07/09 05:07:30;;;;;;;10.15;4.30;;;;;;;;;;10430190;28;20710;-77
2022/07/09 05:12:31;;;;;;;8.73;3.65;;;;;;;;;;10431090;28;20266;-78
2022/07/09 05:17:35;;;;;;;12.65;3.65;;;;;;;;;;10434495;28;20202;-78
2022/07/09 05:22:37;;;;;;;4.40;3.28;;;;;;;;;;10433416;28;21064;-78
2022/07/09 05:27:45;;;;;;;8.38;3.50;;;;;;;;;;10415810;28;20238;-80
2022/07/09 05:32:47;;;;;;;9.95;4.20;;;;;;;;;;10436459;28;20235;-78
2022/07/09 05:37:48;;;;;;;8.68;3.40;;;;;;;;;;10422069;28;20216;-79
2022/07/09 05:42:49;;;;;;;9.93;4.43;;;;;;;;;;10441576;28;20187;-78
2022/07/09 05:47:50;;;;;;;10.45;3.22;;;;;;;;;;10441744;28;20592;-79
2022/07/09 05:52:51;;;;;;;8.68;3.60;;;;;;;;;;10444934;28;20183;-79
2022/07/09 05:57:52;;;;;;;8.50;3.90;;;;;;;;;;10434597;28;20570;-79
2022/07/09 06:02:54;;;;;;;9.48;3.58;;;;;;;;;;10434317;28;20234;-79
2022/07/09 06:07:55;;;;;;;10.23;3.63;;;;;;;;;;10436813;28;20225;-79
2022/07/09 06:12:56;;;;;;;7.00;3.33;;;;;;;;;;10443945;28;20186;-79
2022/07/09 06:17:57;;;;;;;7.28;3.25;;;;;;;;;;10421334;28;20217;-79
2022/07/09 06:22:58;;;;;;;7.35;3.10;;;;;;;;;;10439192;28;20225;-79
2022/07/09 06:27:59;;;;;;;6.65;2.42;;;;;;;;;;10436229;28;20220;-79
2022/07/09 06:33:00;;;;;;;4.95;2.58;;;;;;;;;;10434794;28;20222;-78
2022/07/09 06:38:01;;;;;;;3.20;1.95;;;;;;;;;;10427448;28;20195;-80
2022/07/09 06:43:03;;;;;;;7.63;2.63;;;;;;;;;;10427935;28;20622;-79
2022/07/09 06:48:09;;;;;;;2.95;2.00;;;;;;;;;;10425526;28;20859;-79
2022/07/09 06:53:10;;;;;;;5.45;2.63;;;;;;;;;;10401871;28;20194;-79
2022/07/09 06:58:11;;;;;;;3.38;2.45;;;;;;;;;;10433727;28;20233;-79
2022/07/09 07:03:12;;;;;;;4.72;2.45;;;;;;;;;;10431652;28;20214;-79
2022/07/09 07:08:13;;;;;;;4.47;1.67;;;;;;;;;;10425142;28;20248;-79
2022/07/09 07:13:14;;;;;;;6.38;2.05;;;;;;;;;;10429433;28;20179;-77
2022/07/09 07:18:16;;;;;;;2.22;1.58;;;;;;;;;;10431497;28;20213;-75
2022/07/09 07:23:17;;;;;;;3.92;2.13;;;;;;;;;;10422352;28;20187;-79
2022/07/09 07:28:18;;;;;;;7.70;3.95;;;;;;;;;;10426801;28;20219;-78
2022/07/09 07:33:19;;;;;;;7.63;5.30;;;;;;;;;;10404997;28;20786;-79
2022/07/09 07:38:20;;;;;;;6.38;5.50;;;;;;;;;;10412566;28;20381;-77
2022/07/09 07:43:22;;;;;;;9.45;6.00;;;;;;;;;;10425019;28;20214;-79
2022/07/09 07:48:23;;;;;;;5.38;4.88;;;;;;;;;;10426090;28;20241;-80
2022/07/09 07:53:24;;;;;;;8.32;4.57;;;;;;;;;;10429328;28;20230;-75
2022/07/09 07:58:25;;;;;;;4.47;3.92;;;;;;;;;;10429518;28;20187;-75
2022/07/09 08:03:26;;;;;;;4.22;3.40;;;;;;;;;;10426637;28;20220;-78
2022/07/09 08:08:27;;;;;;;6.45;3.15;;;;;;;;;;10424707;28;20229;-74
2022/07/09 08:13:28;;;;;;;7.40;3.60;;;;;;;;;;10425687;28;20214;-77
2022/07/09 08:18:29;;;;;;;8.02;3.53;;;;;;;;;;10413039;28;20209;-77
2022/07/09 08:23:30;;;;;;;3.05;2.80;;;;;;;;;;10422809;28;20198;-76
2022/07/09 08:28:31;;;;;;;2.50;2.30;;;;;;;;;;10403582;28;20211;-75
2022/07/09 08:33:32;;;;;;;6.80;2.35;;;;;;;;;;10418228;28;20219;-74
2022/07/09 08:38:34;;;;;;;2.03;1.48;;;;;;;;;;10421446;28;20194;-73
2022/07/09 08:43:36;;;;;;;2.15;1.85;;;;;;;;;;10422412;28;20188;-73
2022/07/09 08:48:37;;;;;;;3.20;1.00;;;;;;;;;;10425081;28;20278;-72
2022/07/09 08:53:40;;;;;;;1.25;1.20;;;;;;;;;;10420480;28;20255;-73
2022/07/09 08:58:41;;;;;;;0.82;0.82;;;;;;;;;;10415874;28;20211;-73
2022/07/09 09:03:43;;;;;;;1.88;1.05;;;;;;;;;;10417075;28;20669;-71
2022/07/09 09:08:44;;;;;;;3.75;0.93;;;;;;;;;;10417224;28;20963;-73
2022/07/09 09:13:49;;;;;;;3.45;0.88;;;;;;;;;;10416398;28;20186;-73
2022/07/09 09:18:51;;;;;;;1.67;1.00;;;;;;;;;;10413736;28;20740;-74
2022/07/09 09:23:53;;;;;;;2.28;1.23;;;;;;;;;;10402831;28;20188;-75
2022/07/09 09:29:02;;;;;;;1.88;0.70;;;;;;;;;;10411897;28;20222;-73
2022/07/09 09:34:09;;;;;;;2.55;0.93;;;;;;;;;;10419478;28;21016;-73
2022/07/09 09:39:18;;;;;;;0.85;0.85;;;;;;;;;;10422178;28;20190;-74
2022/07/09 09:44:20;;;;;;;1.30;0.70;;;;;;;;;;10421924;28;20645;-75
2022/07/09 09:49:22;;;;;;;0.75;0.70;;;;;;;;;;10397742;28;20247;-75
2022/07/09 09:54:23;;;;;;;1.38;0.57;;;;;;;;;;10391484;28;20195;-73
2022/07/09 09:59:24;;;;;;;0.80;0.80;;;;;;;;;;10415121;28;20241;-75
2022/07/09 10:04:25;;;;;;;1.27;0.80;;;;;;;;;;10414740;28;20223;-74
2022/07/09 10:09:26;;;;;;;1.83;0.75;;;;;;;;;;10416434;28;20230;-77
2022/07/09 10:14:27;;;;;;;2.95;0.80;;;;;;;;;;10407521;28;20295;-77
2022/07/09 10:19:30;;;;;;;1.35;0.60;;;;;;;;;;10414302;28;20210;-76
2022/07/09 10:24:32;;;;;;;0.85;0.57;;;;;;;;;;10419175;28;20195;-76
2022/07/09 10:29:34;;;;;;;1.20;0.70;;;;;;;;;;10418909;28;20305;-77
2022/07/09 10:34:41;;;;;;;0.70;0.60;;;;;;;;;;10382962;28;20644;-76
2022/07/09 10:39:52;;;;;;;1.45;0.60;;;;;;;;;;10415555;28;20743;-75
2022/07/09 10:44:53;;;;;;;2.03;0.70;;;;;;;;;;10416803;28;20198;-76
2022/07/09 10:49:54;;;;;;;1.08;0.70;;;;;;;;;;10416369;28;20233;-77
2022/07/09 10:54:55;;;;;;;0.60;0.60;;;;;;;;;;10417821;28;20669;-77
2022/07/09 10:59:56;;;;;;;0.70;0.70;;;;;;;;;;10420484;28;20195;-77
2022/07/09 11:04:58;;;;;;;1.27;0.50;;;;;;;;;;10406245;28;20227;-76
2022/07/09 11:09:59;;;;;;;2.83;0.60;;;;;;;;;;10415611;28;20239;-73
2022/07/09 11:15:00;;;;;;;1.55;0.50;;;;;;;;;;10414296;28;20530;-77
2022/07/09 11:20:02;;;;;;;2.03;0.50;;;;;;;;;;10394399;28;20225;-76
2022/07/09 11:25:03;;;;;;;0.50;0.50;;;;;;;;;;10415572;28;20580;-74
2022/07/09 11:30:04;;;;;;;0.88;0.73;;;;;;;;;;10413988;28;20231;-73
2022/07/09 11:35:06;;;;;;;1.27;0.70;;;;;;;;;;10400657;28;20215;-75
2022/07/09 11:40:07;;;;;;;1.42;0.60;;;;;;;;;;10409543;28;20187;-74
2022/07/09 11:45:09;;;;;;;0.50;0.50;;;;;;;;;;10418076;28;20207;-73
2022/07/09 11:50:11;;;;;;;1.13;0.50;;;;;;;;;;10421535;28;20258;-71
2022/07/09 11:55:14;;;;;;;0.77;0.40;;;;;;;;;;10420184;28;25987;-74
2022/07/09 12:00:42;;;;;;;1.13;0.40;;;;;;;;;;10422782;28;20192;-75
2022/07/09 12:05:43;;;;;;;0.40;0.40;;;;;;;;;;10418993;28;20211;-74
2022/07/09 12:10:44;;;;;;;1.55;0.50;;;;;;;;;;10426149;28;20227;-74
2022/07/09 12:15:45;;;;;;;0.40;0.40;;;;;;;;;;10425689;28;20187;-73
2022/07/09 12:20:46;;;;;;;0.50;0.50;;;;;;;;;;10427431;28;20211;-74
2022/07/09 12:25:47;;;;;;;1.92;0.40;;;;;;;;;;10427520;28;20191;-73
2022/07/09 12:30:49;;;;;;;2.15;0.57;;;;;;;;;;10413649;28;20235;-74
2022/07/09 12:35:50;;;;;;;0.57;0.57;;;;;;;;;;10423918;28;20191;-74
2022/07/09 12:40:52;;;;;;;0.40;0.40;;;;;;;;;;10426614;28;20194;-74
2022/07/09 12:45:53;;;;;;;1.17;0.50;;;;;;;;;;10419332;28;20290;-72
2022/07/09 12:50:54;;;;;;;1.55;0.40;;;;;;;;;;10422965;28;20223;-70
2022/07/09 12:55:55;;;;;;;0.40;0.40;;;;;;;;;;10421626;28;20201;-74
2022/07/09 13:00:56;;;;;;;0.50;0.50;;;;;;;;;;10418478;28;20238;-72
2022/07/09 13:05:57;;;;;;;1.25;0.40;;;;;;;;;;10420780;28;20978;-72
2022/07/09 13:10:58;;;;;;;2.33;0.40;;;;;;;;;;10419544;28;20230;-72
2022/07/09 13:16:00;;;;;;;0.40;0.40;;;;;;;;;;10420424;28;20187;-70
2022/07/09 13:21:01;;;;;;;1.58;0.60;;;;;;;;;;10420948;28;20223;-72
2022/07/09 13:26:02;;;;;;;0.30;0.30;;;;;;;;;;10404497;28;20203;-72
2022/07/09 13:31:05;;;;;;;1.30;0.40;;;;;;;;;;10420804;28;20284;-72
2022/07/09 13:36:07;;;;;;;0.30;0.30;;;;;;;;;;10425765;28;20199;-73
2022/07/09 13:41:08;;;;;;;2.25;0.40;;;;;;;;;;10420188;28;20195;-71
2022/07/09 13:46:10;;;;;;;0.40;0.40;;;;;;;;;;10419118;28;20244;-71
2022/07/09 13:51:11;;;;;;;0.40;0.40;;;;;;;;;;10420691;28;20218;-71
2022/07/09 13:56:12;;;;;;;0.40;0.40;;;;;;;;;;10415730;28;20190;-72
2022/07/09 14:01:14;;;;;;;0.50;0.50;;;;;;;;;;10402790;28;20207;-71
2022/07/09 14:06:15;;;;;;;5.78;0.90;;;;;;;;;;10418669;28;20277;-72
2022/07/09 14:11:16;;;;;;;0.80;0.80;;;;;;;;;;10418551;28;20984;-71
2022/07/09 14:16:18;;;;;;;0.80;0.80;;;;;;;;;;10420312;28;20202;-71
2022/07/09 14:21:19;;;;;;;2.40;0.85;;;;;;;;;;10422758;28;20219;-73
2022/07/09 14:26:20;;;;;;;0.75;0.70;;;;;;;;;;10425113;28;20195;-73
2022/07/09 14:31:21;;;;;;;0.60;0.60;;;;;;;;;;10423259;28;20246;-75
2022/07/09 14:36:22;;;;;;;0.73;0.40;;;;;;;;;;10425431;28;21319;-75
2022/07/09 14:41:23;;;;;;;1.30;0.50;;;;;;;;;;10420095;28;20226;-75
2022/07/09 14:46:24;;;;;;;0.30;0.30;;;;;;;;;;10423123;28;20242;-74
2022/07/09 14:51:25;;;;;;;0.50;0.50;;;;;;;;;;10419614;28;20273;-74
2022/07/09 14:56:29;;;;;;;0.75;0.75;;;;;;;;;;10415770;28;20573;-74
2022/07/09 15:01:31;;;;;;;0.75;0.50;;;;;;;;;;10402407;28;20207;-76
2022/07/09 15:06:32;;;;;;;0.60;0.50;;;;;;;;;;10420218;28;20268;-75
2022/07/09 15:11:33;;;;;;;0.52;0.52;;;;;;;;;;10424251;28;20299;-74
2022/07/09 15:16:34;;;;;;;0.70;0.60;;;;;;;;;;10425103;28;21597;-73
2022/07/09 15:21:35;;;;;;;0.73;0.50;;;;;;;;;;10421061;28;20305;-73
2022/07/09 15:26:36;;;;;;;0.40;0.40;;;;;;;;;;10427849;28;20222;-72
2022/07/09 15:31:37;;;;;;;0.75;0.40;;;;;;;;;;10430189;28;20987;-71
2022/07/09 15:36:38;;;;;;;0.40;0.40;;;;;;;;;;10431831;28;20203;-72
2022/07/09 15:41:39;;;;;;;0.35;0.32;;;;;;;;;;10432796;28;20215;-72
2022/07/09 15:46:40;;;;;;;1.30;0.30;;;;;;;;;;10434322;28;20191;-72
2022/07/09 15:51:41;;;;;;;0.73;0.43;;;;;;;;;;10431761;28;20305;-72
2022/07/09 15:56:43;;;;;;;1.33;0.90;;;;;;;;;;10424161;28;20234;-73
2022/07/09 16:01:44;;;;;;;0.95;0.50;;;;;;;;;;10405368;28;20478;-70
2022/07/09 16:06:45;;;;;;;0.57;0.57;;;;;;;;;;10427498;28;20226;-71
2022/07/09 16:17:06;;;;;;;2.05;0.50;;;;;;;;;;10428766;28;20198;-71
2022/07/09 16:22:07;;;;;;;0.52;0.32;;;;;;;;;;10427106;28;20206;-69
2022/07/09 16:27:09;;;;;;;0.30;0.30;;;;;;;;;;10426732;28;20193;-69
2022/07/09 16:32:10;;;;;;;1.25;0.30;;;;;;;;;;10427218;28;20269;-70
2022/07/09 16:37:11;;;;;;;0.40;0.40;;;;;;;;;;10428802;28;20229;-71
2022/07/09 16:42:13;;;;;;;3.20;0.45;;;;;;;;;;10427348;28;20195;-69
2022/07/09 16:47:14;;;;;;;1.35;0.30;;;;;;;;;;10425429;28;20276;-71
2022/07/09 16:52:15;;;;;;;0.20;0.20;;;;;;;;;;10424084;28;20183;-71
2022/07/09 16:57:16;;;;;;;3.10;0.30;;;;;;;;;;10423576;28;20929;-71
2022/07/09 17:02:17;;;;;;;1.17;0.30;;;;;;;;;;10422703;28;21000;-71
2022/07/09 17:07:18;;;;;;;0.30;0.30;;;;;;;;;;10424521;28;20225;-71
2022/07/09 17:12:19;;;;;;;1.15;0.35;;;;;;;;;;10422724;28;20547;-72
2022/07/09 17:17:20;;;;;;;0.50;0.50;;;;;;;;;;10403732;28;20758;-72
2022/07/09 17:22:21;;;;;;;0.52;0.40;;;;;;;;;;10411544;28;20268;-72
2022/07/09 17:27:22;;;;;;;0.50;0.50;;;;;;;;;;10423015;28;20223;-69
2022/07/09 17:32:23;;;;;;;2.67;0.52;;;;;;;;;;10422260;28;20211;-72
2022/07/09 17:37:24;;;;;;;1.38;0.47;;;;;;;;;;10414970;28;20194;-71
2022/07/09 17:42:26;;;;;;;4.50;0.40;;;;;;;;;;10422092;28;20257;-71
2022/07/09 17:47:27;;;;;;;4.22;0.57;;;;;;;;;;10421002;28;20314;-71
2022/07/09 17:52:28;;;;;;;0.40;0.40;;;;;;;;;;10404386;28;20579;-72
2022/07/09 17:57:29;;;;;;;0.68;0.68;;;;;;;;;;10424861;28;20191;-72
2022/07/09 18:02:30;;;;;;;1.05;0.60;;;;;;;;;;10422951;28;20737;-75
2022/07/09 18:07:31;;;;;;;0.60;0.57;;;;;;;;;;10422920;28;20234;-73
2022/07/09 18:12:32;;;;;;;2.20;0.60;;;;;;;;;;10421476;28;20262;-73
2022/07/09 18:17:34;;;;;;;0.82;0.50;;;;;;;;;;10424318;28;20260;-73
2022/07/09 18:22:36;;;;;;;3.05;0.63;;;;;;;;;;10404934;28;20210;-72
2022/07/09 18:27:37;;;;;;;3.90;0.55;;;;;;;;;;10423874;28;20276;-71
2022/07/09 18:32:38;;;;;;;2.28;0.60;;;;;;;;;;10420001;28;20211;-71
2022/07/09 18:37:40;;;;;;;3.10;0.45;;;;;;;;;;10416263;28;20191;-72
2022/07/09 18:42:41;;;;;;;2.60;0.40;;;;;;;;;;10420730;28;20693;-72
2022/07/09 18:47:42;;;;;;;3.00;0.60;;;;;;;;;;10418336;28;20638;-71
2022/07/09 18:52:43;;;;;;;1.58;0.50;;;;;;;;;;10401258;28;20283;-72
2022/07/09 18:57:44;;;;;;;0.50;0.40;;;;;;;;;;10419717;28;20187;-71
2022/07/09 19:02:46;;;;;;;1.00;0.50;;;;;;;;;;10420941;28;20223;-73
2022/07/09 19:07:47;;;;;;;3.40;0.52;;;;;;;;;;10415919;28;20325;-70
2022/07/09 19:12:48;;;;;;;1.92;0.50;;;;;;;;;;10419830;28;20638;-73
2022/07/09 19:17:50;;;;;;;1.17;0.43;;;;;;;;;;10419272;28;20289;-74
2022/07/09 19:22:51;;;;;;;1.58;0.50;;;;;;;;;;10421572;28;20310;-72
2022/07/09 19:27:52;;;;;;;1.85;0.60;;;;;;;;;;10422167;28;20290;-73
2022/07/09 19:38:12;;;;;;;2.10;0.55;;;;;;;;;;10422849;28;20667;-71
2022/07/09 19:43:14;;;;;;;0.60;0.43;;;;;;;;;;10418489;28;20195;-73
2022/07/09 19:48:15;;;;;;;4.93;0.30;;;;;;;;;;10416772;28;20226;-74
2022/07/09 19:53:16;;;;;;;3.42;0.45;;;;;;;;;;10402082;28;20724;-73
2022/07/09 19:58:17;;;;;;;2.83;0.47;;;;;;;;;;10420447;28;20190;-71
2022/07/09 20:03:19;;;;;;;1.13;0.50;;;;;;;;;;10407807;28;20624;-73
2022/07/09 20:08:20;;;;;;;0.30;0.30;;;;;;;;;;10403666;28;20303;-73
2022/07/09 20:13:21;;;;;;;0.40;0.40;;;;;;;;;;10427251;28;20920;-75
2022/07/09 20:18:23;;;;;;;1.73;0.40;;;;;;;;;;10431119;28;20210;-75
2022/07/09 20:23:24;;;;;;;0.73;0.30;;;;;;;;;;10431554;28;20202;-76
2022/07/09 20:28:25;;;;;;;4.22;0.40;;;;;;;;;;10433017;28;20250;-74
2022/07/09 20:33:26;;;;;;;3.33;0.40;;;;;;;;;;10429818;28;20207;-75
2022/07/09 20:38:27;;;;;;;1.70;0.38;;;;;;;;;;10428367;28;20191;-74
2022/07/09 20:43:28;;;;;;;2.55;0.75;;;;;;;;;;10424590;28;20322;-74
2022/07/09 20:48:29;;;;;;;1.73;0.40;;;;;;;;;;10426553;28;20211;-74
2022/07/09 20:53:31;;;;;;;4.18;0.50;;;;;;;;;;10431619;28;20190;-76
2022/07/09 20:58:32;;;;;;;2.00;0.35;;;;;;;;;;10430143;28;20195;-76
2022/07/09 21:03:33;;;;;;;2.60;0.40;;;;;;;;;;10427422;28;20306;-77
2022/07/09 21:08:34;;;;;;;2.15;0.40;;;;;;;;;;10430255;28;20308;-76
2022/07/09 21:13:35;;;;;;;2.28;0.30;;;;;;;;;;10430199;28;20320;-74
2022/07/09 21:18:50;;;;;;;4.78;0.35;;;;;;;;;;10433730;28;20212;-77
2022/07/09 21:23:51;;;;;;;2.92;0.40;;;;;;;;;;10430411;28;20701;-76
2022/07/09 21:28:52;;;;;;;2.30;0.50;;;;;;;;;;10428466;28;20227;-75
2022/07/09 21:33:53;;;;;;;2.45;0.47;;;;;;;;;;10431550;28;20297;-76
2022/07/09 21:38:55;;;;;;;3.58;0.43;;;;;;;;;;10429056;28;20226;-75
2022/07/09 21:43:56;;;;;;;2.75;0.47;;;;;;;;;;10426407;28;20184;-75
2022/07/09 21:48:57;;;;;;;0.30;0.20;;;;;;;;;;10412101;28;20345;-75
2022/07/09 21:53:58;;;;;;;1.17;0.40;;;;;;;;;;10424960;28;20191;-76
2022/07/09 21:58:59;;;;;;;1.35;0.50;;;;;;;;;;10429196;28;20425;-77
2022/07/09 22:04:01;;;;;;;1.48;0.32;;;;;;;;;;10413692;28;20752;-76
2022/07/09 22:09:02;;;;;;;2.75;0.40;;;;;;;;;;10429082;28;20227;-74
2022/07/09 22:14:03;;;;;;;0.63;0.40;;;;;;;;;;10429449;28;20191;-74
2022/07/09 22:19:05;;;;;;;4.43;0.70;;;;;;;;;;10426741;28;20210;-76
2022/07/09 22:24:06;;;;;;;2.53;0.40;;;;;;;;;;10429913;28;20881;-75
2022/07/09 22:29:07;;;;;;;1.65;0.55;;;;;;;;;;10424561;28;20207;-73
2022/07/09 22:34:08;;;;;;;2.30;0.43;;;;;;;;;;10425349;28;20218;-76
2022/07/09 22:39:09;;;;;;;1.50;0.50;;;;;;;;;;10426642;28;20875;-78
2022/07/09 22:44:10;;;;;;;2.28;0.50;;;;;;;;;;10423662;28;21059;-76
2022/07/09 22:49:11;;;;;;;3.00;0.40;;;;;;;;;;10424275;28;20671;-73
2022/07/09 22:54:12;;;;;;;0.52;0.38;;;;;;;;;;10426929;28;20187;-75
2022/07/09 22:59:13;;;;;;;3.08;0.43;;;;;;;;;;10426126;28;20229;-76
2022/07/09 23:04:14;;;;;;;2.15;0.40;;;;;;;;;;10423294;28;20202;-75
2022/07/09 23:09:16;;;;;;;2.33;0.50;;;;;;;;;;10432757;28;20276;-75
2022/07/09 23:14:17;;;;;;;2.83;0.60;;;;;;;;;;10426888;28;20187;-76
2022/07/09 23:19:19;;;;;;;1.15;0.30;;;;;;;;;;10428155;28;21095;-76
2022/07/09 23:24:20;;;;;;;4.55;0.40;;;;;;;;;;10426462;28;20657;-76
2022/07/09 23:29:21;;;;;;;3.38;0.52;;;;;;;;;;10408205;28;20309;-76
2022/07/09 23:34:22;;;;;;;2.00;0.38;;;;;;;;;;10425034;28;20253;-76
2022/07/09 23:39:23;;;;;;;2.97;0.40;;;;;;;;;;10425479;28;20313;-77
2022/07/09 23:44:24;;;;;;;3.33;0.40;;;;;;;;;;10424464;28;20285;-77
2022/07/09 23:49:25;;;;;;;2.30;0.40;;;;;;;;;;10431559;28;20210;-74
2022/07/09 23:54:26;;;;;;;1.77;0.35;;;;;;;;;;10397210;28;20217;-75
2022/07/09 23:59:27;;;;;;;2.92;0.52;;;;;;;;;;10415696;28;20198;-75
